Airfield :
LOGIN :

Register | Disclaimer

   EN    FR    IT 

 










Legend :    VFR   Marginal VFR   IFR   Intensive IFR   Very Intensive IFR
Visi :
Ceiling :
>= 8 km
>= 3000ft
5 to 8 km
1000 to 3000 ft
1500m to 5 km
500 to 1000 ft
800 to 1500m
200 to 500 ft
< 800m
< 200 ft
Symbols :   Thunderstorms  Fog  Heavy snow  Heavy precipitations  Wind > 20 kt
SIGMETs :     Misc.  Thunderstorms  Icing  Turbulence  Mountain Waves  Volcanic Ashes







- Airport Elevation : 230 ft
- IATA code : TBJ


DTKA - Tabarka 7 Novembre

CURRENT METAR :
  • 191700Z 08005KT 050V110 9999 FEW020 23/16 Q1011 NOSIG

EXPIRED METARs :
  • 191600Z VRB01KT 9999 FEW020 25/18 Q1011 NOSIG

TAF TAF DTKA
Valid from the 19 at 16:00 until the 20 at 01:00 UTC


191500Z 1916/2001 01007KT 9999 FEW020
BECMG 1917/1919 13010KT
PROB30
TEMPO 2000/2001 -TSRA SCT020TCU BKN030CB
No reported NOTAMs for that airfield.



MET'MAP, your aeronautical weather chart ! - Copyright ORBIFLY December 2007 - Disclaimer

ORBIFLY MET'MAP TEAM :

Programming & Development : Alexandra Zaïnal
Concept & Development : Baudouin d'Aumeries
Co-Development & Prog : Marc-Olivier Méhu
Technical & hardware support : Manuel Goepfert

Contact : metmap@orbifly.com




SOURCES & CREDITS :

   NOAA